Time;durP1;ratioP1;P1;durP2;ratioP2;P2;SDS_P1;SDS_P2;PMS_P1;PMS_P2;Temp;Humidity;BMP_temperature;BMP_pressure;BME280_temperature;BME280_humidity;BME280_pressure;Samples;Min_cycle;Max_cycle;Signal;HPM_P1;HPM_P2
2021/07/03 00:00:30;;;;;;;0.70;0.50;;;;;;;;;;5117509;28;20383;-74
2021/07/03 00:02:56;;;;;;;2.17;0.85;;;;;;;;;;5115998;28;20020;-75
2021/07/03 00:05:22;;;;;;;1.90;0.70;;;;;;;;;;5117294;28;20383;-75
2021/07/03 00:07:48;;;;;;;2.95;0.70;;;;;;;;;;5117081;28;20028;-75
2021/07/03 00:10:15;;;;;;;1.25;0.80;;;;;;;;;;5117226;28;20072;-75
2021/07/03 00:12:41;;;;;;;1.42;0.77;;;;;;;;;;5116898;28;20049;-75
2021/07/03 00:15:09;;;;;;;1.80;0.70;;;;;;;;;;5117134;28;20044;-76
2021/07/03 00:17:35;;;;;;;4.80;0.80;;;;;;;;;;5117146;28;20468;-75
2021/07/03 00:20:01;;;;;;;3.58;0.65;;;;;;;;;;5116755;28;20026;-75
2021/07/03 00:22:27;;;;;;;1.27;0.80;;;;;;;;;;5117013;28;20383;-75
2021/07/03 00:24:53;;;;;;;1.33;0.68;;;;;;;;;;5116874;28;20131;-74
2021/07/03 00:27:19;;;;;;;1.60;0.60;;;;;;;;;;5116575;28;20035;-74
2021/07/03 00:29:45;;;;;;;2.22;0.70;;;;;;;;;;5116835;28;20015;-75
2021/07/03 00:32:11;;;;;;;5.10;0.90;;;;;;;;;;5116665;28;20039;-73
2021/07/03 00:34:38;;;;;;;2.67;0.80;;;;;;;;;;5115282;28;20077;-74
2021/07/03 00:37:04;;;;;;;3.20;1.00;;;;;;;;;;5116523;28;20047;-76
2021/07/03 00:39:30;;;;;;;2.08;0.60;;;;;;;;;;5116662;28;20447;-75
2021/07/03 00:41:56;;;;;;;1.15;0.70;;;;;;;;;;5116567;28;20051;-74
2021/07/03 00:44:29;;;;;;;1.13;0.70;;;;;;;;;;5116140;28;20023;-75
2021/07/03 00:46:55;;;;;;;2.85;0.77;;;;;;;;;;5116524;28;20032;-75
2021/07/03 00:49:21;;;;;;;1.63;0.80;;;;;;;;;;5116272;28;20028;-75
2021/07/03 00:51:47;;;;;;;3.38;0.80;;;;;;;;;;5116308;28;20391;-75
2021/07/03 00:54:14;;;;;;;3.30;0.70;;;;;;;;;;5116065;28;20081;-75
2021/07/03 00:56:40;;;;;;;2.22;0.70;;;;;;;;;;5116260;28;20028;-75
2021/07/03 00:59:06;;;;;;;2.78;0.90;;;;;;;;;;5112794;28;20024;-74
2021/07/03 01:01:32;;;;;;;1.25;0.80;;;;;;;;;;5113419;28;20479;-75
2021/07/03 01:03:58;;;;;;;2.70;0.75;;;;;;;;;;5113328;28;20482;-74
2021/07/03 01:06:25;;;;;;;3.67;0.65;;;;;;;;;;5115695;28;20532;-75
2021/07/03 01:08:51;;;;;;;2.92;0.73;;;;;;;;;;5115645;28;20107;-75
2021/07/03 01:11:24;;;;;;;1.90;0.93;;;;;;;;;;5114096;28;20022;-75
2021/07/03 01:13:50;;;;;;;3.03;0.70;;;;;;;;;;5114614;28;20039;-75
2021/07/03 01:16:16;;;;;;;2.70;0.82;;;;;;;;;;5115864;28;20028;-75
2021/07/03 01:18:42;;;;;;;2.15;0.60;;;;;;;;;;5115550;28;20102;-75
2021/07/03 01:21:08;;;;;;;2.28;0.95;;;;;;;;;;5115181;28;20043;-76
2021/07/03 01:23:34;;;;;;;3.75;0.70;;;;;;;;;;5115412;28;20023;-76
2021/07/03 01:26:00;;;;;;;6.00;1.13;;;;;;;;;;5115743;28;20035;-75
2021/07/03 01:28:26;;;;;;;4.13;1.02;;;;;;;;;;5115384;28;20030;-75
2021/07/03 01:30:53;;;;;;;6.03;0.80;;;;;;;;;;5115614;28;20020;-74
2021/07/03 01:33:20;;;;;;;1.83;0.68;;;;;;;;;;5115391;28;20375;-75
2021/07/03 01:35:46;;;;;;;2.15;0.70;;;;;;;;;;5115252;28;20024;-76
2021/07/03 01:38:19;;;;;;;4.10;0.90;;;;;;;;;;5115493;28;20049;-76
2021/07/03 01:40:46;;;;;;;1.90;0.63;;;;;;;;;;5115111;28;20019;-75
2021/07/03 01:43:12;;;;;;;1.52;0.80;;;;;;;;;;5114984;28;20020;-76
2021/07/03 01:45:38;;;;;;;6.32;0.80;;;;;;;;;;5114860;28;20036;-76
2021/07/03 01:48:04;;;;;;;4.93;0.70;;;;;;;;;;5115187;28;20141;-74
2021/07/03 01:50:30;;;;;;;5.10;1.55;;;;;;;;;;5114933;28;20476;-75
2021/07/03 01:52:56;;;;;;;1.60;0.82;;;;;;;;;;5114961;28;20032;-75
2021/07/03 01:55:22;;;;;;;1.60;0.80;;;;;;;;;;5115073;28;20042;-75
2021/07/03 01:57:48;;;;;;;2.45;0.80;;;;;;;;;;5114975;28;20023;-76
2021/07/03 02:00:15;;;;;;;2.42;0.70;;;;;;;;;;5114761;28;20023;-74
2021/07/03 02:02:41;;;;;;;5.25;0.68;;;;;;;;;;5114941;28;20106;-73
2021/07/03 02:05:07;;;;;;;1.05;0.55;;;;;;;;;;5114690;28;20115;-75
2021/07/03 02:07:33;;;;;;;1.92;0.70;;;;;;;;;;5115349;28;20035;-75
2021/07/03 02:10:00;;;;;;;1.63;0.80;;;;;;;;;;5114846;28;20379;-76
2021/07/03 02:12:26;;;;;;;1.83;0.75;;;;;;;;;;5114674;28;20472;-75
2021/07/03 02:14:52;;;;;;;1.88;1.02;;;;;;;;;;5114549;28;20480;-76
2021/07/03 02:17:18;;;;;;;0.90;0.60;;;;;;;;;;5114822;28;20023;-75
2021/07/03 02:19:44;;;;;;;0.80;0.70;;;;;;;;;;5114541;28;20464;-74
2021/07/03 02:22:10;;;;;;;1.23;0.60;;;;;;;;;;5114561;28;20387;-75
2021/07/03 02:24:37;;;;;;;2.10;0.93;;;;;;;;;;5114296;28;20023;-76
2021/07/03 02:27:03;;;;;;;1.38;0.70;;;;;;;;;;5114437;28;20046;-75
2021/07/03 02:29:29;;;;;;;1.40;0.70;;;;;;;;;;5114612;28;20032;-76
2021/07/03 02:31:55;;;;;;;1.05;0.70;;;;;;;;;;5114446;28;20027;-75
2021/07/03 02:34:21;;;;;;;0.85;0.60;;;;;;;;;;5114412;28;20428;-75
2021/07/03 02:36:47;;;;;;;2.17;0.80;;;;;;;;;;5114045;28;20135;-75
2021/07/03 02:39:13;;;;;;;2.90;0.80;;;;;;;;;;5114890;28;20388;-74
2021/07/03 02:41:39;;;;;;;1.33;0.80;;;;;;;;;;5113924;28;20027;-75
2021/07/03 02:44:06;;;;;;;1.65;0.80;;;;;;;;;;5114141;28;20038;-75
2021/07/03 02:46:32;;;;;;;3.20;0.90;;;;;;;;;;5114097;28;20031;-75
2021/07/03 02:48:58;;;;;;;1.80;0.70;;;;;;;;;;5114013;28;20061;-76
2021/07/03 02:51:24;;;;;;;2.38;0.70;;;;;;;;;;5113869;28;20095;-75
2021/07/03 02:53:50;;;;;;;1.63;0.82;;;;;;;;;;5112698;28;20051;-75
2021/07/03 02:56:16;;;;;;;0.80;0.60;;;;;;;;;;5113810;28;20035;-75
2021/07/03 02:58:42;;;;;;;1.27;0.60;;;;;;;;;;5113879;28;20065;-76
2021/07/03 03:01:09;;;;;;;0.80;0.68;;;;;;;;;;5113901;28;20099;-75
2021/07/03 03:03:35;;;;;;;1.13;0.70;;;;;;;;;;5113512;28;20068;-73
2021/07/03 03:06:01;;;;;;;2.45;0.90;;;;;;;;;;5113772;28;20368;-74
2021/07/03 03:08:27;;;;;;;3.47;0.70;;;;;;;;;;5113593;28;20103;-75
2021/07/03 03:10:53;;;;;;;0.95;0.85;;;;;;;;;;5111724;28;20028;-76
2021/07/03 03:13:19;;;;;;;2.90;0.70;;;;;;;;;;5113389;28;20023;-74
2021/07/03 03:15:45;;;;;;;1.23;0.98;;;;;;;;;;5113336;28;20068;-74
2021/07/03 03:18:11;;;;;;;1.85;0.93;;;;;;;;;;5113609;28;20030;-72
2021/07/03 03:20:37;;;;;;;1.42;0.80;;;;;;;;;;5113555;28;20070;-74
2021/07/03 03:23:03;;;;;;;2.20;0.85;;;;;;;;;;5113215;28;20024;-74
2021/07/03 03:25:29;;;;;;;1.70;0.80;;;;;;;;;;5113238;28;20031;-75
2021/07/03 03:27:55;;;;;;;0.68;0.68;;;;;;;;;;5113464;28;20051;-75
2021/07/03 03:30:21;;;;;;;1.73;0.90;;;;;;;;;;5113525;28;20106;-75
2021/07/03 03:32:47;;;;;;;0.82;0.65;;;;;;;;;;5113389;28;20027;-75
2021/07/03 03:35:13;;;;;;;1.83;0.75;;;;;;;;;;5113218;28;20506;-76
2021/07/03 03:37:39;;;;;;;3.40;0.85;;;;;;;;;;5113559;28;20487;-75
2021/07/03 03:40:06;;;;;;;1.58;0.75;;;;;;;;;;5113372;28;20028;-76
2021/07/03 03:42:32;;;;;;;2.17;0.93;;;;;;;;;;5113153;28;20032;-75
2021/07/03 03:44:58;;;;;;;1.95;0.98;;;;;;;;;;5113331;28;20016;-76
2021/07/03 03:47:24;;;;;;;1.73;1.00;;;;;;;;;;5113542;28;20024;-74
2021/07/03 03:49:50;;;;;;;2.22;0.80;;;;;;;;;;5111965;28;20020;-75
2021/07/03 03:52:16;;;;;;;3.00;1.00;;;;;;;;;;5113101;28;20024;-75
2021/07/03 03:54:42;;;;;;;2.42;0.80;;;;;;;;;;5113288;28;20032;-75
2021/07/03 03:57:21;;;;;;;5.80;0.98;;;;;;;;;;5112984;28;20027;-75
2021/07/03 03:59:48;;;;;;;2.67;1.10;;;;;;;;;;5113506;28;20020;-74
2021/07/03 04:02:14;;;;;;;1.23;0.90;;;;;;;;;;5113066;28;20543;-74
2021/07/03 04:04:40;;;;;;;1.92;1.02;;;;;;;;;;5112942;28;20438;-75
2021/07/03 04:07:07;;;;;;;2.47;0.90;;;;;;;;;;5112902;28;20030;-75
2021/07/03 04:09:33;;;;;;;1.23;0.80;;;;;;;;;;5113136;28;20024;-76
2021/07/03 04:11:59;;;;;;;2.22;0.77;;;;;;;;;;5113060;28;20026;-75
2021/07/03 04:14:25;;;;;;;1.85;0.90;;;;;;;;;;5112907;28;20044;-75
2021/07/03 04:16:51;;;;;;;2.05;1.17;;;;;;;;;;5113001;28;20024;-75
2021/07/03 04:19:17;;;;;;;2.70;1.10;;;;;;;;;;5113167;28;20379;-74
2021/07/03 04:21:43;;;;;;;1.98;1.08;;;;;;;;;;5113082;28;20024;-76
2021/07/03 04:24:09;;;;;;;3.28;1.10;;;;;;;;;;5112908;28;20494;-76
2021/07/03 04:26:35;;;;;;;5.65;1.10;;;;;;;;;;5112852;28;20399;-76
2021/07/03 04:29:01;;;;;;;2.92;1.00;;;;;;;;;;5112922;28;20024;-76
2021/07/03 04:31:27;;;;;;;4.55;1.15;;;;;;;;;;5112911;28;20035;-74
2021/07/03 04:33:53;;;;;;;1.90;0.85;;;;;;;;;;5112958;28;20022;-76
2021/07/03 04:36:19;;;;;;;4.75;1.20;;;;;;;;;;5116664;28;20105;-75
2021/07/03 04:38:45;;;;;;;2.83;1.13;;;;;;;;;;5116684;28;20020;-74
2021/07/03 04:41:11;;;;;;;2.53;1.10;;;;;;;;;;5116757;28;20030;-75
2021/07/03 04:43:37;;;;;;;3.90;1.17;;;;;;;;;;5116422;28;20090;-75
2021/07/03 04:46:03;;;;;;;4.18;1.20;;;;;;;;;;5116274;28;20062;-74
2021/07/03 04:48:29;;;;;;;2.65;1.10;;;;;;;;;;5116409;28;20023;-75
2021/07/03 04:50:55;;;;;;;2.90;1.20;;;;;;;;;;5116126;28;20107;-75
2021/07/03 04:53:21;;;;;;;1.75;1.10;;;;;;;;;;5116238;28;20091;-74
2021/07/03 04:55:47;;;;;;;3.65;1.20;;;;;;;;;;5116017;28;20110;-75
2021/07/03 04:58:13;;;;;;;3.22;1.30;;;;;;;;;;5115502;28;20102;-74
2021/07/03 05:00:39;;;;;;;3.53;1.10;;;;;;;;;;5115088;28;20103;-73
2021/07/03 05:03:05;;;;;;;3.75;1.17;;;;;;;;;;5115005;28;20028;-74
2021/07/03 05:05:31;;;;;;;1.10;1.00;;;;;;;;;;5114035;28;20035;-72
2021/07/03 05:07:57;;;;;;;1.70;1.00;;;;;;;;;;5115895;28;20024;-72
2021/07/03 05:10:23;;;;;;;5.53;1.55;;;;;;;;;;5115919;28;20031;-73
2021/07/03 05:12:49;;;;;;;7.47;1.38;;;;;;;;;;5115791;28;20128;-73
2021/07/03 05:15:15;;;;;;;6.85;1.58;;;;;;;;;;5115653;28;20068;-73
2021/07/03 05:17:41;;;;;;;7.70;1.58;;;;;;;;;;5115956;28;20016;-72
2021/07/03 05:20:08;;;;;;;3.55;1.50;;;;;;;;;;5115441;28;20027;-74
2021/07/03 05:22:34;;;;;;;2.03;1.23;;;;;;;;;;5115649;28;20016;-74
2021/07/03 05:25:00;;;;;;;2.72;1.30;;;;;;;;;;5115584;28;20027;-72
2021/07/03 05:27:26;;;;;;;3.70;1.38;;;;;;;;;;5115672;28;20106;-73
2021/07/03 05:29:52;;;;;;;1.95;1.30;;;;;;;;;;5115945;28;20043;-72
2021/07/03 05:32:18;;;;;;;6.72;1.40;;;;;;;;;;5115510;28;20055;-74
2021/07/03 05:34:44;;;;;;;2.08;1.30;;;;;;;;;;5115496;28;20111;-73
2021/07/03 05:37:10;;;;;;;4.00;1.35;;;;;;;;;;5115632;28;20031;-72
2021/07/03 05:39:36;;;;;;;1.60;1.08;;;;;;;;;;5115479;28;20467;-72
2021/07/03 05:42:02;;;;;;;6.28;1.50;;;;;;;;;;5115388;28;20039;-73
2021/07/03 05:44:28;;;;;;;3.80;1.20;;;;;;;;;;5115159;28;20098;-72
2021/07/03 05:46:55;;;;;;;2.42;1.17;;;;;;;;;;5114832;28;20375;-71
2021/07/03 05:49:22;;;;;;;3.17;1.83;;;;;;;;;;5115137;28;20068;-73
2021/07/03 05:51:48;;;;;;;2.10;1.00;;;;;;;;;;5115112;28;20106;-72
2021/07/03 05:54:15;;;;;;;2.10;1.38;;;;;;;;;;5115285;28;20024;-73
2021/07/03 05:56:41;;;;;;;3.17;1.00;;;;;;;;;;5113926;28;20027;-71
2021/07/03 05:59:07;;;;;;;1.85;1.20;;;;;;;;;;5115105;28;20482;-72
2021/07/03 06:01:33;;;;;;;5.63;1.13;;;;;;;;;;5114882;28;20456;-72
2021/07/03 06:03:59;;;;;;;2.65;1.35;;;;;;;;;;5114789;28;20116;-71
2021/07/03 06:06:25;;;;;;;2.00;1.30;;;;;;;;;;5114702;28;20468;-71
2021/07/03 06:08:51;;;;;;;5.65;1.40;;;;;;;;;;5114907;28;20022;-71
2021/07/03 06:11:17;;;;;;;2.22;1.00;;;;;;;;;;5114894;28;20104;-72
2021/07/03 06:13:43;;;;;;;2.38;1.20;;;;;;;;;;5114284;28;20059;-72
2021/07/03 06:16:09;;;;;;;1.48;1.30;;;;;;;;;;5114597;28;20089;-71
2021/07/03 06:18:35;;;;;;;3.22;1.60;;;;;;;;;;5113018;28;20376;-72
2021/07/03 06:21:01;;;;;;;5.13;1.38;;;;;;;;;;5114522;28;20055;-71
2021/07/03 06:23:28;;;;;;;3.63;1.30;;;;;;;;;;5114442;28;20062;-72
2021/07/03 06:25:55;;;;;;;2.92;1.27;;;;;;;;;;5114601;28;20035;-73
2021/07/03 06:28:21;;;;;;;2.63;1.35;;;;;;;;;;5114249;28;20024;-72
2021/07/03 06:30:47;;;;;;;5.50;1.20;;;;;;;;;;5114727;28;20440;-72
2021/07/03 06:33:13;;;;;;;4.25;1.25;;;;;;;;;;5114415;28;20030;-73
2021/07/03 06:35:39;;;;;;;2.78;1.42;;;;;;;;;;5114543;28;20028;-72
2021/07/03 06:38:06;;;;;;;1.70;1.05;;;;;;;;;;5114646;28;20110;-73
2021/07/03 06:40:32;;;;;;;5.10;1.58;;;;;;;;;;5114410;28;20104;-72
2021/07/03 06:42:58;;;;;;;1.42;1.10;;;;;;;;;;5114936;28;20019;-72
2021/07/03 06:45:24;;;;;;;7.10;1.50;;;;;;;;;;5112848;28;20118;-72
2021/07/03 06:47:50;;;;;;;1.75;1.30;;;;;;;;;;5114149;28;20511;-71
2021/07/03 06:50:16;;;;;;;5.47;1.45;;;;;;;;;;5114324;28;20446;-72
2021/07/03 06:52:42;;;;;;;1.92;1.30;;;;;;;;;;5114135;28;20365;-71
2021/07/03 06:55:09;;;;;;;1.45;1.13;;;;;;;;;;5112192;28;20498;-71
2021/07/03 06:57:35;;;;;;;3.35;1.48;;;;;;;;;;5113262;28;20020;-72
2021/07/03 07:00:01;;;;;;;1.40;1.30;;;;;;;;;;5112646;28;20016;-73
2021/07/03 07:02:27;;;;;;;3.10;1.33;;;;;;;;;;5112484;28;20152;-73
2021/07/03 07:04:53;;;;;;;5.95;1.60;;;;;;;;;;5113711;28;20020;-72
2021/07/03 07:07:19;;;;;;;1.75;1.40;;;;;;;;;;5113599;28;20036;-72
2021/07/03 07:09:45;;;;;;;3.53;1.60;;;;;;;;;;5110544;28;20089;-73
2021/07/03 07:12:11;;;;;;;4.57;1.48;;;;;;;;;;5109646;28;20053;-72
2021/07/03 07:14:39;;;;;;;3.50;1.50;;;;;;;;;;5112553;28;20487;-72
2021/07/03 07:17:05;;;;;;;2.15;1.27;;;;;;;;;;5112183;28;20379;-72
2021/07/03 07:19:47;;;;;;;1.98;1.50;;;;;;;;;;5112891;28;20051;-72
2021/07/03 07:22:13;;;;;;;2.30;1.40;;;;;;;;;;5112698;28;20020;-72
2021/07/03 07:24:39;;;;;;;2.60;1.27;;;;;;;;;;5111148;28;20106;-72
2021/07/03 07:27:05;;;;;;;3.05;1.45;;;;;;;;;;5113512;28;20396;-71
2021/07/03 07:29:31;;;;;;;4.55;1.52;;;;;;;;;;5113236;28;20103;-72
2021/07/03 07:31:57;;;;;;;2.03;1.48;;;;;;;;;;5113499;28;20120;-73
2021/07/03 07:34:23;;;;;;;1.45;1.20;;;;;;;;;;5113217;28;20023;-71
2021/07/03 07:36:49;;;;;;;2.00;1.08;;;;;;;;;;5113325;28;20023;-75
2021/07/03 07:39:15;;;;;;;1.65;1.30;;;;;;;;;;5113396;28;20386;-73
2021/07/03 07:41:41;;;;;;;2.30;1.48;;;;;;;;;;5113154;28;20031;-72
2021/07/03 07:44:07;;;;;;;4.43;1.50;;;;;;;;;;5113137;28;20090;-70
2021/07/03 07:46:33;;;;;;;7.22;1.50;;;;;;;;;;5113494;28;20055;-72
2021/07/03 07:49:00;;;;;;;1.70;1.30;;;;;;;;;;5111933;28;20019;-72
2021/07/03 07:51:26;;;;;;;1.75;1.30;;;;;;;;;;5112329;28;20047;-71
2021/07/03 07:53:52;;;;;;;1.88;1.20;;;;;;;;;;5111183;28;20042;-71
2021/07/03 07:56:19;;;;;;;3.13;1.13;;;;;;;;;;5113192;28;20049;-72
2021/07/03 07:58:46;;;;;;;2.97;1.17;;;;;;;;;;5113303;28;20032;-71
2021/07/03 08:01:13;;;;;;;5.05;1.25;;;;;;;;;;5113095;28;20015;-71
2021/07/03 08:03:39;;;;;;;1.30;1.20;;;;;;;;;;5113150;28;20024;-72
2021/07/03 08:06:05;;;;;;;3.53;1.27;;;;;;;;;;5113177;28;20552;-71
2021/07/03 08:08:31;;;;;;;2.22;1.27;;;;;;;;;;5114637;28;20356;-71
2021/07/03 08:10:57;;;;;;;5.22;1.30;;;;;;;;;;5117312;28;20031;-71
2021/07/03 08:13:23;;;;;;;2.50;1.10;;;;;;;;;;5117012;28;20527;-71
2021/07/03 08:15:50;;;;;;;16.08;1.88;;;;;;;;;;5116945;28;20050;-71
2021/07/03 08:18:17;;;;;;;18.17;1.85;;;;;;;;;;5117131;28;20032;-71
2021/07/03 08:20:43;;;;;;;2.55;1.23;;;;;;;;;;5115759;28;20023;-72
2021/07/03 08:23:09;;;;;;;2.53;1.00;;;;;;;;;;5116889;28;20080;-71
2021/07/03 08:25:35;;;;;;;2.85;1.23;;;;;;;;;;5116657;28;20039;-71
2021/07/03 08:28:01;;;;;;;4.88;1.60;;;;;;;;;;5116764;28;20024;-71
2021/07/03 08:30:28;;;;;;;3.50;1.55;;;;;;;;;;5116891;28;20030;-72
2021/07/03 08:32:55;;;;;;;2.30;1.40;;;;;;;;;;5116814;28;20016;-72
2021/07/03 08:35:21;;;;;;;6.18;1.40;;;;;;;;;;5116816;28;20529;-72
2021/07/03 08:37:48;;;;;;;1.58;1.20;;;;;;;;;;5116951;28;20379;-71
2021/07/03 08:40:14;;;;;;;2.50;1.20;;;;;;;;;;5116541;28;20480;-72
2021/07/03 08:42:41;;;;;;;3.22;1.50;;;;;;;;;;5116447;28;20028;-71
2021/07/03 08:45:08;;;;;;;2.88;1.15;;;;;;;;;;5116680;28;20051;-72
2021/07/03 08:47:35;;;;;;;3.85;1.45;;;;;;;;;;5116628;28;20560;-74
2021/07/03 08:50:02;;;;;;;2.40;1.30;;;;;;;;;;5116636;28;20023;-71
2021/07/03 08:52:29;;;;;;;1.73;1.20;;;;;;;;;;5116420;28;20031;-71
2021/07/03 08:55:03;;;;;;;2.13;1.40;;;;;;;;;;5116406;28;20024;-71
2021/07/03 08:57:31;;;;;;;1.92;1.20;;;;;;;;;;5116433;28;20032;-72
2021/07/03 08:59:58;;;;;;;3.05;1.10;;;;;;;;;;5114157;28;20510;-72
2021/07/03 09:02:34;;;;;;;1.55;1.23;;;;;;;;;;5113125;28;20116;-72
2021/07/03 09:05:00;;;;;;;3.97;1.83;;;;;;;;;;5114879;28;20089;-72
2021/07/03 09:07:32;;;;;;;2.05;1.40;;;;;;;;;;5116175;28;20032;-72
2021/07/03 09:09:58;;;;;;;2.22;1.38;;;;;;;;;;5116125;28;20394;-72
2021/07/03 09:12:34;;;;;;;1.70;1.20;;;;;;;;;;5116126;28;20567;-72
2021/07/03 09:15:14;;;;;;;2.15;1.20;;;;;;;;;;5114471;28;20514;-71
2021/07/03 09:17:49;;;;;;;4.05;1.38;;;;;;;;;;5115898;28;20035;-72
2021/07/03 09:20:21;;;;;;;2.72;1.23;;;;;;;;;;5115362;28;20413;-73
2021/07/03 09:22:47;;;;;;;3.33;1.20;;;;;;;;;;5115859;28;20055;-72
2021/07/03 09:25:17;;;;;;;1.38;1.20;;;;;;;;;;5116053;28;20020;-71
2021/07/03 09:27:43;;;;;;;2.80;1.40;;;;;;;;;;5116213;28;20042;-71
2021/07/03 09:30:10;;;;;;;3.42;1.40;;;;;;;;;;5115643;28;20470;-72
2021/07/03 09:32:36;;;;;;;1.80;1.20;;;;;;;;;;5115717;28;20055;-71
2021/07/03 09:35:08;;;;;;;2.85;1.38;;;;;;;;;;5115901;28;20528;-72
2021/07/03 09:37:35;;;;;;;1.55;1.30;;;;;;;;;;5115464;28;20028;-72
2021/07/03 09:40:08;;;;;;;2.28;1.40;;;;;;;;;;5115642;28;20024;-71
2021/07/03 09:42:38;;;;;;;2.88;1.13;;;;;;;;;;5115514;28;20421;-71
2021/07/03 09:45:05;;;;;;;1.52;1.05;;;;;;;;;;5115315;28;20024;-71
2021/07/03 09:47:31;;;;;;;2.50;1.40;;;;;;;;;;5115491;28;20479;-71
2021/07/03 09:50:13;;;;;;;2.60;1.40;;;;;;;;;;5115597;28;20024;-72
2021/07/03 09:52:39;;;;;;;;;;;;;;;;;;5115841;28;20430;-73
2021/07/03 09:55:07;;;;;;;3.22;1.17;;;;;;;;;;5115291;28;19960;-72
2021/07/03 09:57:37;;;;;;;3.45;1.42;;;;;;;;;;5115200;28;20028;-72
2021/07/03 10:00:09;;;;;;;1.63;1.08;;;;;;;;;;5115341;28;20027;-71
2021/07/03 10:02:35;;;;;;;2.95;1.30;;;;;;;;;;5113901;28;20027;-72
2021/07/03 10:05:01;;;;;;;3.17;1.27;;;;;;;;;;5115075;28;20015;-72
2021/07/03 10:07:35;;;;;;;1.70;1.05;;;;;;;;;;5114890;28;20027;-72
2021/07/03 10:10:09;;;;;;;3.15;1.48;;;;;;;;;;5115193;28;20020;-71
2021/07/03 10:12:38;;;;;;;3.70;1.33;;;;;;;;;;5114949;28;20030;-72
2021/07/03 10:15:04;;;;;;;1.85;1.35;;;;;;;;;;5114997;28;20096;-71
2021/07/03 10:17:32;;;;;;;3.22;1.20;;;;;;;;;;5114787;28;20495;-71
2021/07/03 10:19:58;;;;;;;1.63;1.20;;;;;;;;;;5114813;28;20027;-72
2021/07/03 10:22:24;;;;;;;1.45;1.10;;;;;;;;;;5114588;28;20514;-72
2021/07/03 10:24:52;;;;;;;1.75;1.08;;;;;;;;;;5114608;28;20062;-72
2021/07/03 10:27:19;;;;;;;1.75;0.95;;;;;;;;;;5114469;28;20438;-72
2021/07/03 10:29:47;;;;;;;3.20;1.10;;;;;;;;;;5114625;28;20024;-73
2021/07/03 10:32:21;;;;;;;3.15;1.17;;;;;;;;;;5113508;27;20471;-72
2021/07/03 10:34:47;;;;;;;2.50;1.20;;;;;;;;;;5114361;28;20062;-72
2021/07/03 10:37:16;;;;;;;1.40;0.95;;;;;;;;;;5114466;28;20028;-72
2021/07/03 10:39:42;;;;;;;5.05;1.15;;;;;;;;;;5114325;28;20020;-72
2021/07/03 10:42:08;;;;;;;4.47;1.23;;;;;;;;;;5114550;28;20392;-72
2021/07/03 10:44:38;;;;;;;6.70;1.13;;;;;;;;;;5114392;28;20023;-73
2021/07/03 10:47:27;;;;;;;3.63;1.08;;;;;;;;;;5114178;28;20195;-72
2021/07/03 10:49:53;;;;;;;2.03;1.52;;;;;;;;;;5114015;28;20050;-73
2021/07/03 10:52:19;;;;;;;1.80;1.10;;;;;;;;;;5114119;28;20503;-72
2021/07/03 10:54:48;;;;;;;2.45;1.20;;;;;;;;;;5114383;28;20507;-73
2021/07/03 10:57:24;;;;;;;1.27;0.90;;;;;;;;;;5114471;28;20047;-72
2021/07/03 10:59:59;;;;;;;8.65;1.30;;;;;;;;;;5113942;28;20050;-73
2021/07/03 11:02:30;;;;;;;5.22;1.33;;;;;;;;;;5114052;28;20020;-72
2021/07/03 11:04:56;;;;;;;0.70;0.70;;;;;;;;;;5113546;28;20463;-72
2021/07/03 11:07:32;;;;;;;2.72;0.98;;;;;;;;;;5113756;28;20039;-72
2021/07/03 11:10:05;;;;;;;3.60;1.15;;;;;;;;;;5113329;28;20476;-70
2021/07/03 11:12:42;;;;;;;4.95;1.00;;;;;;;;;;5113680;28;20387;-71
2021/07/03 11:15:08;;;;;;;10.82;1.20;;;;;;;;;;5113465;28;20044;-72
2021/07/03 11:17:34;;;;;;;5.68;1.00;;;;;;;;;;5113586;28;20027;-71
2021/07/03 11:20:00;;;;;;;2.65;0.90;;;;;;;;;;5113201;28;20032;-72
2021/07/03 11:22:26;;;;;;;2.70;0.90;;;;;;;;;;5113408;28;20031;-72
2021/07/03 11:24:54;;;;;;;5.85;0.90;;;;;;;;;;5113224;28;20068;-72
2021/07/03 11:27:26;;;;;;;1.80;0.85;;;;;;;;;;5113671;28;20046;-71
2021/07/03 11:29:52;;;;;;;4.78;1.00;;;;;;;;;;5113367;28;20098;-72
2021/07/03 11:32:18;;;;;;;3.08;0.93;;;;;;;;;;5113224;28;20027;-72
2021/07/03 11:34:54;;;;;;;7.00;1.02;;;;;;;;;;5113509;28;20026;-72
2021/07/03 11:37:31;;;;;;;8.18;1.10;;;;;;;;;;5113210;28;20070;-73
2021/07/03 11:39:58;;;;;;;4.30;1.00;;;;;;;;;;5113518;28;20023;-72
2021/07/03 11:42:32;;;;;;;5.47;1.02;;;;;;;;;;5113194;28;20019;-72
2021/07/03 11:44:58;;;;;;;2.53;0.80;;;;;;;;;;5117422;28;20024;-71
2021/07/03 11:47:40;;;;;;;2.13;0.90;;;;;;;;;;5118005;28;20031;-72
2021/07/03 11:50:07;;;;;;;3.72;1.05;;;;;;;;;;5117705;28;20024;-72
2021/07/03 11:52:47;;;;;;;3.95;1.00;;;;;;;;;;5117492;28;20024;-72
2021/07/03 11:55:14;;;;;;;4.55;0.90;;;;;;;;;;5117389;28;20330;-71
2021/07/03 11:57:41;;;;;;;1.65;1.20;;;;;;;;;;5116977;28;20080;-71
2021/07/03 12:00:07;;;;;;;2.55;0.95;;;;;;;;;;5116776;28;20106;-71
2021/07/03 12:02:33;;;;;;;4.20;1.15;;;;;;;;;;5116489;28;20020;-70
2021/07/03 12:04:59;;;;;;;3.40;1.00;;;;;;;;;;5116716;27;20031;-71
2021/07/03 12:07:25;;;;;;;2.00;0.98;;;;;;;;;;5115685;28;20030;-71
2021/07/03 12:10:01;;;;;;;4.53;1.20;;;;;;;;;;5116644;28;20062;-71
2021/07/03 12:12:27;;;;;;;5.45;1.20;;;;;;;;;;5114105;28;20103;-71
2021/07/03 12:15:11;;;;;;;2.38;1.23;;;;;;;;;;5111747;28;20077;-72
2021/07/03 12:17:50;;;;;;;5.30;1.30;;;;;;;;;;5112890;28;20023;-73
2021/07/03 12:20:17;;;;;;;1.75;1.10;;;;;;;;;;5115397;28;20016;-71
2021/07/03 12:22:53;;;;;;;5.22;1.40;;;;;;;;;;5116065;28;20020;-72
2021/07/03 12:25:20;;;;;;;5.03;1.80;;;;;;;;;;5116723;28;20115;-71
2021/07/03 12:27:55;;;;;;;1.88;1.20;;;;;;;;;;5116784;27;20448;-71
2021/07/03 12:30:21;;;;;;;3.47;1.20;;;;;;;;;;5116871;28;20024;-71
2021/07/03 12:32:47;;;;;;;3.30;1.20;;;;;;;;;;5116393;28;20115;-72
2021/07/03 12:35:14;;;;;;;3.17;1.17;;;;;;;;;;5116624;28;20482;-71
2021/07/03 12:37:40;;;;;;;4.22;1.23;;;;;;;;;;5115589;28;20039;-73
2021/07/03 12:40:13;;;;;;;3.45;1.30;;;;;;;;;;5113710;28;20024;-72
2021/07/03 12:42:39;;;;;;;4.13;1.08;;;;;;;;;;5113765;28;20396;-71
2021/07/03 12:45:06;;;;;;;4.53;0.90;;;;;;;;;;5114884;28;20035;-71
2021/07/03 12:47:32;;;;;;;1.20;0.90;;;;;;;;;;5115739;28;20125;-71
2021/07/03 12:50:01;;;;;;;2.38;0.90;;;;;;;;;;5114717;28;20020;-72
2021/07/03 12:52:34;;;;;;;2.17;1.17;;;;;;;;;;5111941;28;20503;-72
2021/07/03 12:55:00;;;;;;;2.60;1.05;;;;;;;;;;5113201;28;20045;-72
2021/07/03 12:57:36;;;;;;;1.00;0.80;;;;;;;;;;5116075;28;20019;-71
2021/07/03 13:00:03;;;;;;;2.50;0.85;;;;;;;;;;5115702;28;20023;-72
2021/07/03 13:02:29;;;;;;;3.38;0.80;;;;;;;;;;5115824;28;20028;-72
2021/07/03 13:04:55;;;;;;;3.22;0.85;;;;;;;;;;5115732;28;20425;-71
2021/07/03 13:07:21;;;;;;;1.55;0.82;;;;;;;;;;5116012;28;20476;-72
2021/07/03 13:09:48;;;;;;;2.75;0.85;;;;;;;;;;5115705;28;20032;-72
2021/07/03 13:12:14;;;;;;;2.35;0.60;;;;;;;;;;5115803;28;20425;-71
2021/07/03 13:14:41;;;;;;;1.10;0.70;;;;;;;;;;5115856;28;20058;-72
2021/07/03 13:17:07;;;;;;;2.03;0.70;;;;;;;;;;5115630;27;20027;-72
2021/07/03 13:19:33;;;;;;;2.50;0.90;;;;;;;;;;5115825;28;20028;-72
2021/07/03 13:21:59;;;;;;;2.55;0.70;;;;;;;;;;5116007;27;20027;-72
2021/07/03 13:24:26;;;;;;;1.88;0.80;;;;;;;;;;5115570;28;20072;-72
2021/07/03 13:26:52;;;;;;;4.20;0.90;;;;;;;;;;5115645;28;20042;-73
2021/07/03 13:29:18;;;;;;;3.75;0.80;;;;;;;;;;5115822;28;20102;-72
2021/07/03 13:31:44;;;;;;;6.53;0.90;;;;;;;;;;5115399;28;20039;-73
2021/07/03 13:34:10;;;;;;;1.73;0.60;;;;;;;;;;5115346;28;20027;-73
2021/07/03 13:36:37;;;;;;;1.67;0.88;;;;;;;;;;5115651;28;20031;-73
2021/07/03 13:39:04;;;;;;;1.58;0.80;;;;;;;;;;5114794;28;20110;-73
2021/07/03 13:41:30;;;;;;;1.70;0.80;;;;;;;;;;5115392;28;20036;-70
2021/07/03 13:43:56;;;;;;;1.95;0.70;;;;;;;;;;5115247;28;20111;-69
2021/07/03 13:46:23;;;;;;;1.88;0.90;;;;;;;;;;5114449;28;20039;-68
2021/07/03 13:48:49;;;;;;;1.25;0.80;;;;;;;;;;5114770;28;20461;-68
2021/07/03 13:51:15;;;;;;;3.55;1.08;;;;;;;;;;5114762;28;20028;-68
2021/07/03 13:53:41;;;;;;;9.52;1.00;;;;;;;;;;5114581;28;20025;-68
2021/07/03 13:56:07;;;;;;;1.35;0.80;;;;;;;;;;5113126;28;20080;-68
2021/07/03 13:58:33;;;;;;;3.92;0.90;;;;;;;;;;5113097;28;20417;-68
2021/07/03 14:01:00;;;;;;;4.38;0.82;;;;;;;;;;5114762;28;20099;-68
2021/07/03 14:03:26;;;;;;;3.40;0.88;;;;;;;;;;5114634;28;20043;-69
2021/07/03 14:05:52;;;;;;;2.22;0.80;;;;;;;;;;5113027;28;20078;-68
2021/07/03 14:08:19;;;;;;;2.50;0.90;;;;;;;;;;5113806;28;20383;-69
2021/07/03 14:10:45;;;;;;;4.15;0.85;;;;;;;;;;5125929;27;20051;-68
2021/07/03 14:13:11;;;;;;;1.35;0.70;;;;;;;;;;5134051;27;20028;-68
2021/07/03 14:15:37;;;;;;;1.00;0.60;;;;;;;;;;5134962;27;20035;-68
2021/07/03 14:18:04;;;;;;;3.13;0.80;;;;;;;;;;5134898;27;20026;-70
2021/07/03 14:20:30;;;;;;;3.45;0.70;;;;;;;;;;5135039;27;20022;-71
2021/07/03 14:22:56;;;;;;;3.90;0.70;;;;;;;;;;5134885;27;20023;-72
2021/07/03 14:25:22;;;;;;;1.70;0.60;;;;;;;;;;5135058;27;20034;-71
2021/07/03 14:27:50;;;;;;;1.25;0.50;;;;;;;;;;5134966;27;20038;-71
2021/07/03 14:30:16;;;;;;;1.02;0.70;;;;;;;;;;5134771;27;20030;-73
2021/07/03 14:32:42;;;;;;;4.57;0.70;;;;;;;;;;5134581;27;20023;-73
2021/07/03 14:35:08;;;;;;;2.00;0.75;;;;;;;;;;5134357;27;20020;-72
2021/07/03 14:37:34;;;;;;;2.30;0.60;;;;;;;;;;5134385;27;20454;-72
2021/07/03 14:40:01;;;;;;;4.20;0.70;;;;;;;;;;5134646;27;20054;-72
2021/07/03 14:42:27;;;;;;;4.80;0.68;;;;;;;;;;5134829;27;20027;-72